Terminal Aerodrome Forecast
Issued by NWS

Home | Current Version | Previous Version | Text Only | Print | Product List | Glossary Off
Versions: 1 2 3 4 5 6 7 8 9 10 11 12 13 14 15 16 17 18 19 20 21 22

580
FTUS43 KFGF 242037 AAA
TAFBJI
TAF AMD
KBJI 242037Z 2421/2518 14013G18KT P6SM OVC012
     FM242300 14014G19KT P6SM VCTS OVC018CB
     FM250300 14013KT P6SM VCTS OVC012CB
     FM251200 20007KT P6SM BKN020
     FM251300 21008KT P6SM BKN050=

USA.gov is the U.S. government's official web portal to all federal, state and local government web resources and services.